createdAt,value
2023-02-26T00:00:13.115Z,83.80
2023-02-26T00:02:39.697Z,84.20
2023-02-26T00:05:07.101Z,84.00
2023-02-26T00:07:34.135Z,83.70
2023-02-26T00:10:04.248Z,83.90
2023-02-26T00:12:31.638Z,84.40
2023-02-26T00:14:59.279Z,85.00
2023-02-26T00:17:36.701Z,85.10
2023-02-26T00:20:04.726Z,84.70
2023-02-26T00:22:31.678Z,84.90
2023-02-26T00:24:58.546Z,84.90
2023-02-26T00:27:25.111Z,85.30
2023-02-26T00:29:51.915Z,84.70
2023-02-26T00:32:18.789Z,84.10
2023-02-26T00:34:47.196Z,84.60
2023-02-26T00:37:38.854Z,83.00
2023-02-26T00:40:16.452Z,81.80
2023-02-26T00:42:43.238Z,80.60
2023-02-26T00:45:14.875Z,78.90
2023-02-26T00:47:49.107Z,78.70
2023-02-26T00:50:23.061Z,77.40
2023-02-26T00:53:02.018Z,78.00
2023-02-26T00:55:29.636Z,78.10
2023-02-26T00:57:56.323Z,77.30
2023-02-26T01:00:23.198Z,77.90
2023-02-26T01:02:50.935Z,76.30
2023-02-26T01:05:18.144Z,75.90
2023-02-26T01:08:13.694Z,76.40
2023-02-26T01:10:41.275Z,76.40
2023-02-26T01:13:08.224Z,77.10
2023-02-26T01:15:35.622Z,76.50
2023-02-26T01:18:16.045Z,77.10
2023-02-26T01:20:56.303Z,76.70
2023-02-26T01:23:26.896Z,76.60
2023-02-26T01:26:03.714Z,76.30
2023-02-26T01:28:30.624Z,75.80
2023-02-26T01:31:03.920Z,76.20
2023-02-26T01:33:40.468Z,76.50
2023-02-26T01:36:23.054Z,75.70
2023-02-26T01:39:04.760Z,76.10
2023-02-26T01:41:53.890Z,75.80
2023-02-26T01:44:36.445Z,75.00
2023-02-26T01:47:36.286Z,75.80
2023-02-26T01:50:21.505Z,75.50
2023-02-26T01:52:48.242Z,76.40
2023-02-26T01:55:24.133Z,75.40
2023-02-26T01:57:53.076Z,75.40
2023-02-26T02:00:20.011Z,74.90
2023-02-26T02:02:46.874Z,75.50
2023-02-26T02:05:32.842Z,76.30
2023-02-26T02:08:00.428Z,76.30
2023-02-26T02:10:27.995Z,75.70
2023-02-26T02:13:10.585Z,76.30
2023-02-26T02:15:46.908Z,75.00
2023-02-26T02:18:18.517Z,74.10
2023-02-26T02:21:00.757Z,74.10
2023-02-26T02:23:44.772Z,73.00
2023-02-26T02:26:46.468Z,73.10
2023-02-26T02:29:46.971Z,72.40
2023-02-26T02:32:19.804Z,70.70
2023-02-26T02:34:52.839Z,71.50
2023-02-26T02:37:41.562Z,71.40
2023-02-26T02:40:15.519Z,70.50
2023-02-26T02:42:52.153Z,70.90
2023-02-26T02:45:34.118Z,70.10
2023-02-26T02:48:17.811Z,70.60
2023-02-26T02:50:50.182Z,70.50
2023-02-26T02:53:36.429Z,71.30
2023-02-26T02:56:09.499Z,71.20
2023-02-26T02:58:44.653Z,70.90
2023-02-26T03:01:15.647Z,70.30
2023-02-26T03:03:50.664Z,69.70
2023-02-26T03:06:17.773Z,70.20
2023-02-26T03:08:46.206Z,70.20
2023-02-26T03:11:12.773Z,70.20
2023-02-26T03:13:40.921Z,69.50
2023-02-26T03:16:38.608Z,69.60
2023-02-26T03:19:11.876Z,70.00
2023-02-26T03:21:38.422Z,69.10
2023-02-26T03:24:18.058Z,69.70
2023-02-26T03:26:50.074Z,69.20
2023-02-26T03:29:31.267Z,69.00
2023-02-26T03:32:00.506Z,69.20
2023-02-26T03:34:36.151Z,68.40
2023-02-26T03:37:11.704Z,69.90
2023-02-26T03:39:42.475Z,70.10
2023-02-26T03:42:23.947Z,69.40
2023-02-26T03:44:57.793Z,69.70
2023-02-26T03:47:25.746Z,70.50
2023-02-26T03:49:59.400Z,70.40
2023-02-26T03:52:29.512Z,70.40
2023-02-26T03:55:03.510Z,71.20
2023-02-26T03:57:30.529Z,70.80
2023-02-26T03:59:57.201Z,70.00
2023-02-26T04:02:33.152Z,70.90
2023-02-26T04:05:06.579Z,71.40
2023-02-26T04:07:33.153Z,71.70
2023-02-26T04:09:59.690Z,71.00
2023-02-26T04:12:28.811Z,71.60
2023-02-26T04:14:57.175Z,72.10
2023-02-26T04:17:23.763Z,72.20
2023-02-26T04:19:50.354Z,72.00
2023-02-26T04:22:16.972Z,71.90
2023-02-26T04:24:43.566Z,72.70
2023-02-26T04:27:10.154Z,72.50
2023-02-26T04:29:37.538Z,73.20
2023-02-26T04:32:04.820Z,73.20
2023-02-26T04:34:31.461Z,74.40
2023-02-26T04:36:58.075Z,74.60
2023-02-26T04:39:24.632Z,74.30
2023-02-26T04:41:51.206Z,74.10
2023-02-26T04:44:17.807Z,75.10
2023-02-26T04:46:44.520Z,74.60
2023-02-26T04:49:11.087Z,74.50
2023-02-26T04:51:37.639Z,75.30
2023-02-26T04:54:04.416Z,75.00
2023-02-26T04:56:32.119Z,75.70
2023-02-26T04:58:58.743Z,76.10
2023-02-26T05:01:25.311Z,75.70
2023-02-26T05:03:51.885Z,75.00
2023-02-26T05:06:18.503Z,76.00
2023-02-26T05:08:45.098Z,75.40
2023-02-26T05:11:12.326Z,74.90
2023-02-26T05:13:39.136Z,75.70
2023-02-26T05:16:06.747Z,75.30
2023-02-26T05:18:33.552Z,74.90
2023-02-26T05:21:00.398Z,75.30
2023-02-26T05:23:27.253Z,74.70
2023-02-26T05:25:56.739Z,73.30
2023-02-26T05:28:24.901Z,74.40
2023-02-26T05:30:51.522Z,74.40
2023-02-26T05:33:18.429Z,74.30
2023-02-26T05:35:46.832Z,73.90
2023-02-26T05:38:13.370Z,73.50
2023-02-26T05:40:39.892Z,73.70
2023-02-26T05:43:06.518Z,73.20
2023-02-26T05:45:33.079Z,73.30
2023-02-26T05:47:59.696Z,72.30
2023-02-26T05:50:27.127Z,72.70
2023-02-26T05:52:53.728Z,73.50
2023-02-26T05:55:20.391Z,72.40
2023-02-26T05:57:47.014Z,72.90
2023-02-26T06:00:14.488Z,72.40
2023-02-26T06:02:42.251Z,71.50
2023-02-26T06:05:09.759Z,71.80
2023-02-26T06:07:36.339Z,72.60
2023-02-26T06:10:03.582Z,71.60
2023-02-26T06:12:30.125Z,71.30
2023-02-26T06:14:56.623Z,69.80
2023-02-26T06:17:23.121Z,71.10
2023-02-26T06:19:49.741Z,71.50
2023-02-26T06:22:16.309Z,71.20
2023-02-26T06:24:42.835Z,71.40
2023-02-26T06:27:09.407Z,70.90
2023-02-26T06:29:37.466Z,70.60
2023-02-26T06:32:05.466Z,71.00
2023-02-26T06:34:32.973Z,70.70
2023-02-26T06:36:59.506Z,71.20
2023-02-26T06:39:26.129Z,70.70
2023-02-26T06:41:52.672Z,70.60
2023-02-26T06:44:19.224Z,71.60
2023-02-26T06:46:45.774Z,70.70
2023-02-26T06:49:12.366Z,70.60
2023-02-26T06:51:39.063Z,71.20
2023-02-26T06:54:06.856Z,71.50
2023-02-26T06:56:33.530Z,70.70
2023-02-26T06:59:00.071Z,70.50
2023-02-26T07:01:27.173Z,70.20
2023-02-26T07:03:53.782Z,69.70
2023-02-26T07:06:38.024Z,69.40
2023-02-26T07:09:04.672Z,69.40
2023-02-26T07:11:31.291Z,70.50
2023-02-26T07:13:57.897Z,70.10
2023-02-26T07:16:24.885Z,69.60
2023-02-26T07:18:51.600Z,69.70
2023-02-26T07:21:18.213Z,69.40
2023-02-26T07:23:44.859Z,69.10
2023-02-26T07:26:11.415Z,68.50
2023-02-26T07:28:38.045Z,69.30
2023-02-26T07:31:04.891Z,69.80
2023-02-26T07:33:31.819Z,69.60
2023-02-26T07:35:58.637Z,69.40
2023-02-26T07:38:25.223Z,69.80
2023-02-26T07:40:55.475Z,69.80
2023-02-26T07:43:22.931Z,69.00
2023-02-26T07:45:53.418Z,69.40
2023-02-26T07:48:20.788Z,68.50
2023-02-26T07:50:47.480Z,67.80
2023-02-26T07:53:14.055Z,66.90
2023-02-26T07:55:40.594Z,66.90
2023-02-26T07:58:07.122Z,64.70
2023-02-26T08:00:33.672Z,63.60
2023-02-26T08:03:00.233Z,63.60
2023-02-26T08:05:28.918Z,64.00
2023-02-26T08:07:56.709Z,62.70
2023-02-26T08:10:23.652Z,61.70
2023-02-26T08:12:50.237Z,62.50
2023-02-26T08:15:16.802Z,63.80
2023-02-26T08:17:43.322Z,64.40
2023-02-26T08:20:10.584Z,64.60
2023-02-26T08:22:37.358Z,62.80
2023-02-26T08:25:04.335Z,61.50
2023-02-26T08:27:31.026Z,60.20
2023-02-26T08:29:57.676Z,59.50
2023-02-26T08:32:24.320Z,58.50
2023-02-26T08:34:50.959Z,56.50
2023-02-26T08:37:17.569Z,55.90
2023-02-26T08:39:44.128Z,53.60
2023-02-26T08:42:12.205Z,52.40
2023-02-26T08:44:38.734Z,53.50
2023-02-26T08:47:05.334Z,54.30
2023-02-26T08:49:31.873Z,52.60
2023-02-26T08:51:58.666Z,52.60
2023-02-26T08:54:25.538Z,53.90
2023-02-26T08:56:57.545Z,54.10
2023-02-26T08:59:25.156Z,53.20
2023-02-26T09:01:52.119Z,52.30
2023-02-26T09:04:18.899Z,53.50
2023-02-26T09:06:45.525Z,56.70
2023-02-26T09:09:12.050Z,58.00
2023-02-26T09:11:38.651Z,57.90
2023-02-26T09:14:05.538Z,56.80
2023-02-26T09:16:35.157Z,55.80
2023-02-26T09:19:01.731Z,57.00
2023-02-26T09:21:28.340Z,58.70
2023-02-26T09:23:54.967Z,59.30
2023-02-26T09:26:21.544Z,58.70
2023-02-26T09:28:48.150Z,56.20
2023-02-26T09:31:14.812Z,54.00
2023-02-26T09:33:41.642Z,53.10
2023-02-26T09:36:08.305Z,53.50
2023-02-26T09:38:38.090Z,53.90
2023-02-26T09:41:10.030Z,53.90
2023-02-26T09:43:52.390Z,54.80
2023-02-26T09:46:53.058Z,54.70
2023-02-26T09:49:34.443Z,54.60
2023-02-26T09:52:18.362Z,56.70
2023-02-26T09:54:52.636Z,57.90
2023-02-26T09:57:31.259Z,58.40
2023-02-26T10:00:00.215Z,59.00
2023-02-26T10:02:51.078Z,58.90
2023-02-26T10:05:18.998Z,59.50
2023-02-26T10:07:51.119Z,55.90
2023-02-26T10:10:48.389Z,57.30
2023-02-26T10:13:56.665Z,57.50
2023-02-26T10:16:28.660Z,56.80
2023-02-26T10:18:58.182Z,56.80
2023-02-26T10:21:46.596Z,57.40
2023-02-26T10:24:22.429Z,59.20
2023-02-26T10:26:58.807Z,59.80
2023-02-26T10:29:35.006Z,59.40
2023-02-26T10:32:27.506Z,57.70
2023-02-26T10:34:58.673Z,56.20
2023-02-26T10:37:25.131Z,56.30
2023-02-26T10:40:09.152Z,57.90
2023-02-26T10:42:47.351Z,58.00
2023-02-26T10:45:24.588Z,58.10
2023-02-26T10:48:05.185Z,59.30
2023-02-26T10:50:32.334Z,59.90
2023-02-26T10:52:59.659Z,60.60
2023-02-26T10:55:35.122Z,57.90
2023-02-26T10:58:16.251Z,56.50
2023-02-26T11:00:44.575Z,55.40
2023-02-26T11:03:21.508Z,55.80
2023-02-26T11:05:48.843Z,56.80
2023-02-26T11:08:27.161Z,55.40
2023-02-26T11:10:55.415Z,53.90
2023-02-26T11:13:26.460Z,54.10
2023-02-26T11:15:55.739Z,54.20
2023-02-26T11:18:36.324Z,55.50
2023-02-26T11:21:06.159Z,56.40
2023-02-26T11:23:33.794Z,57.80
2023-02-26T11:26:06.112Z,57.70
2023-02-26T11:28:37.619Z,57.40
2023-02-26T11:31:11.227Z,57.50
2023-02-26T11:33:45.423Z,57.10
2023-02-26T11:36:20.797Z,57.20
2023-02-26T11:39:02.000Z,56.00
2023-02-26T11:41:29.680Z,56.40
2023-02-26T11:44:05.082Z,56.60
2023-02-26T11:46:36.123Z,57.20
2023-02-26T11:49:03.055Z,57.20
2023-02-26T11:51:30.210Z,57.60
2023-02-26T11:54:02.088Z,57.50
2023-02-26T11:56:35.493Z,57.70
2023-02-26T11:59:08.544Z,58.30
2023-02-26T12:01:37.613Z,59.10
2023-02-26T12:04:04.558Z,58.40
2023-02-26T12:06:31.488Z,58.60
2023-02-26T12:08:58.403Z,58.70
2023-02-26T12:11:46.294Z,58.80
2023-02-26T12:14:42.146Z,58.10
2023-02-26T12:17:46.911Z,58.90
2023-02-26T12:20:38.224Z,59.00
2023-02-26T12:23:25.831Z,59.10
2023-02-26T12:26:03.192Z,59.30
2023-02-26T12:28:39.356Z,59.50
2023-02-26T12:31:36.401Z,59.60
2023-02-26T12:34:21.037Z,60.40
2023-02-26T12:36:53.664Z,60.20
2023-02-26T12:40:11.578Z,60.00
2023-02-26T12:42:44.565Z,60.40
2023-02-26T12:45:11.063Z,59.90
2023-02-26T12:47:52.016Z,59.10
2023-02-26T12:50:38.110Z,59.20
2023-02-26T12:53:29.925Z,60.10
2023-02-26T12:56:18.161Z,59.70
2023-02-26T12:58:53.345Z,59.70
2023-02-26T13:01:38.688Z,59.80
2023-02-26T13:04:16.599Z,60.40
2023-02-26T13:06:55.183Z,61.30
2023-02-26T13:09:26.838Z,61.40
2023-02-26T13:12:12.298Z,61.10
2023-02-26T13:15:04.007Z,60.60
2023-02-26T13:17:47.205Z,61.20
2023-02-26T13:20:20.399Z,61.70
2023-02-26T13:23:12.744Z,62.50
2023-02-26T13:25:52.362Z,63.40
2023-02-26T13:28:21.858Z,62.70
2023-02-26T13:30:55.630Z,62.60
2023-02-26T13:33:27.624Z,63.20
2023-02-26T13:35:56.362Z,62.90
2023-02-26T13:38:31.847Z,62.80
2023-02-26T13:41:21.510Z,63.30
2023-02-26T13:43:56.974Z,62.90
2023-02-26T13:46:26.323Z,63.70
2023-02-26T13:49:12.184Z,64.00
2023-02-26T13:51:49.986Z,63.80
2023-02-26T13:54:17.107Z,63.80
2023-02-26T13:56:46.601Z,64.20
2023-02-26T13:59:13.323Z,64.10
2023-02-26T14:01:54.788Z,63.50
2023-02-26T14:04:24.860Z,64.00
2023-02-26T14:07:11.116Z,66.90
2023-02-26T14:09:56.421Z,68.90
2023-02-26T14:12:41.982Z,69.10
2023-02-26T14:15:37.215Z,68.50
2023-02-26T14:18:06.601Z,70.20
2023-02-26T14:20:35.699Z,74.60
2023-02-26T14:23:09.470Z,76.70
2023-02-26T14:25:40.371Z,74.40
2023-02-26T14:28:32.936Z,71.70
2023-02-26T14:31:11.622Z,69.30
2023-02-26T14:34:00.695Z,68.70
2023-02-26T14:36:43.440Z,69.90
2023-02-26T14:39:28.155Z,71.20
2023-02-26T14:41:59.770Z,71.80
2023-02-26T14:44:30.683Z,72.00
2023-02-26T14:46:58.474Z,72.20
2023-02-26T14:49:33.215Z,71.70
2023-02-26T14:52:16.373Z,70.40
2023-02-26T14:54:48.951Z,69.70
2023-02-26T14:57:28.317Z,68.00
2023-02-26T15:00:23.820Z,68.50
2023-02-26T15:03:32.336Z,66.90
2023-02-26T15:06:34.133Z,66.80
2023-02-26T15:09:35.726Z,66.30
2023-02-26T15:12:51.335Z,64.70
2023-02-26T15:15:46.147Z,65.40
2023-02-26T15:18:37.616Z,65.40
2023-02-26T15:21:35.023Z,65.30
2023-02-26T15:24:02.295Z,64.60
2023-02-26T15:26:37.019Z,64.90
2023-02-26T15:29:07.265Z,65.20
2023-02-26T15:31:37.303Z,64.60
2023-02-26T15:34:04.314Z,64.80
2023-02-26T15:36:31.903Z,65.30
2023-02-26T15:39:06.923Z,65.30
2023-02-26T15:41:33.939Z,65.90
2023-02-26T15:44:10.691Z,66.00
2023-02-26T15:46:45.362Z,66.00
2023-02-26T15:49:24.234Z,66.80
2023-02-26T15:51:52.671Z,67.30
2023-02-26T15:54:23.377Z,66.60
2023-02-26T15:56:51.271Z,66.20
2023-02-26T15:59:21.772Z,65.90
2023-02-26T16:01:50.065Z,66.30
2023-02-26T16:04:19.882Z,66.60
2023-02-26T16:06:49.405Z,66.90
2023-02-26T16:09:31.290Z,67.50
2023-02-26T16:12:00.948Z,67.70
2023-02-26T16:14:36.063Z,68.30
2023-02-26T16:17:06.052Z,68.60
2023-02-26T16:19:43.727Z,68.90
2023-02-26T16:22:23.890Z,70.00
2023-02-26T16:25:00.817Z,70.00
2023-02-26T16:27:30.620Z,70.20
2023-02-26T16:29:59.894Z,70.30
2023-02-26T16:32:29.806Z,70.40
2023-02-26T16:34:59.503Z,71.10
2023-02-26T16:37:29.172Z,71.60
2023-02-26T16:40:11.485Z,72.20
2023-02-26T16:42:50.109Z,72.60
2023-02-26T16:45:32.205Z,73.20
2023-02-26T16:47:59.345Z,73.90
2023-02-26T16:50:28.487Z,74.60
2023-02-26T16:53:08.155Z,74.70
2023-02-26T16:55:37.639Z,74.60
2023-02-26T16:58:07.751Z,75.30
2023-02-26T17:00:37.224Z,75.20
2023-02-26T17:03:17.952Z,75.70
2023-02-26T17:05:52.274Z,75.40
2023-02-26T17:08:20.675Z,75.70
2023-02-26T17:10:51.537Z,75.60
2023-02-26T17:13:24.038Z,75.90
2023-02-26T17:15:53.546Z,76.00
2023-02-26T17:18:21.096Z,76.40
2023-02-26T17:20:47.950Z,76.70
2023-02-26T17:23:17.102Z,77.30
2023-02-26T17:25:47.155Z,77.90
2023-02-26T17:28:21.712Z,78.00
2023-02-26T17:30:48.684Z,78.30
2023-02-26T17:33:15.319Z,78.30
2023-02-26T17:35:43.086Z,78.30
2023-02-26T17:38:13.089Z,78.80
2023-02-26T17:40:41.047Z,78.90
2023-02-26T17:43:08.921Z,79.10
2023-02-26T17:45:36.735Z,79.00
2023-02-26T17:48:03.842Z,79.00
2023-02-26T17:50:40.103Z,79.00
2023-02-26T17:53:08.066Z,78.90
2023-02-26T17:55:39.273Z,78.90
2023-02-26T17:58:22.325Z,79.20
2023-02-26T18:00:52.847Z,79.40
2023-02-26T18:03:20.254Z,79.40
2023-02-26T18:05:48.152Z,79.50
2023-02-26T18:08:30.053Z,80.00
2023-02-26T18:10:57.838Z,80.50
2023-02-26T18:13:25.307Z,80.70
2023-02-26T18:15:52.609Z,81.20
2023-02-26T18:18:21.339Z,81.60
2023-02-26T18:20:48.118Z,81.10
2023-02-26T18:23:16.627Z,81.00
2023-02-26T18:25:45.823Z,80.80
2023-02-26T18:28:24.301Z,80.80
2023-02-26T18:30:52.217Z,81.00
2023-02-26T18:33:19.912Z,80.80
2023-02-26T18:35:49.974Z,80.60
2023-02-26T18:38:18.406Z,80.70
2023-02-26T18:40:45.882Z,80.40
2023-02-26T18:43:13.579Z,80.40
2023-02-26T18:45:45.038Z,79.80
2023-02-26T18:48:13.440Z,79.40
2023-02-26T18:50:40.031Z,78.20
2023-02-26T18:53:06.616Z,76.80
2023-02-26T18:55:33.177Z,77.20
2023-02-26T18:57:59.782Z,77.30
2023-02-26T19:00:28.447Z,77.00
2023-02-26T19:02:55.948Z,77.20
2023-02-26T19:05:26.513Z,77.10
2023-02-26T19:07:54.200Z,77.00
2023-02-26T19:10:21.285Z,77.00
2023-02-26T19:12:47.856Z,76.00
2023-02-26T19:15:14.537Z,75.90
2023-02-26T19:17:42.120Z,76.00
2023-02-26T19:20:10.179Z,75.80
2023-02-26T19:22:36.727Z,75.80
2023-02-26T19:25:04.037Z,76.10
2023-02-26T19:27:30.688Z,76.60
2023-02-26T19:29:57.270Z,77.00
2023-02-26T19:32:25.943Z,77.20
2023-02-26T19:34:52.775Z,77.70
2023-02-26T19:37:19.351Z,77.90
2023-02-26T19:39:46.231Z,78.60
2023-02-26T19:42:12.844Z,78.70
2023-02-26T19:44:39.405Z,78.80
2023-02-26T19:47:06.621Z,78.90
2023-02-26T19:49:33.904Z,79.30
2023-02-26T19:52:00.608Z,79.30
2023-02-26T19:54:27.256Z,79.40
2023-02-26T19:56:53.804Z,79.00
2023-02-26T19:59:20.362Z,79.10
2023-02-26T20:01:49.460Z,79.00
2023-02-26T20:04:17.134Z,79.20
2023-02-26T20:06:44.049Z,79.40
2023-02-26T20:09:12.001Z,79.10
2023-02-26T20:11:39.410Z,79.00
2023-02-26T20:14:06.336Z,79.00
2023-02-26T20:16:33.002Z,78.80
2023-02-26T20:18:59.995Z,78.50
2023-02-26T20:21:27.184Z,79.20
2023-02-26T20:23:54.760Z,79.00
2023-02-26T20:26:21.313Z,79.10
2023-02-26T20:28:48.161Z,79.30
2023-02-26T20:31:15.150Z,79.20
2023-02-26T20:33:41.812Z,79.20
2023-02-26T20:36:09.726Z,79.50
2023-02-26T20:38:36.830Z,79.30
2023-02-26T20:41:04.151Z,79.70
2023-02-26T20:43:30.725Z,79.20
2023-02-26T20:45:57.365Z,79.40
2023-02-26T20:48:24.471Z,79.90
2023-02-26T20:50:53.401Z,80.10
2023-02-26T20:53:21.325Z,80.30
2023-02-26T20:55:48.064Z,80.00
2023-02-26T20:58:14.697Z,80.00
2023-02-26T21:00:41.429Z,79.90
2023-02-26T21:03:08.011Z,80.20
2023-02-26T21:05:35.449Z,79.50
2023-02-26T21:08:03.978Z,79.40
2023-02-26T21:10:32.556Z,80.10
2023-02-26T21:12:59.470Z,79.70
2023-02-26T21:15:26.157Z,78.90
2023-02-26T21:17:52.989Z,79.30
2023-02-26T21:20:21.973Z,79.20
2023-02-26T21:22:49.470Z,78.80
2023-02-26T21:25:16.555Z,79.80
2023-02-26T21:27:43.182Z,80.10
2023-02-26T21:30:11.882Z,80.30
2023-02-26T21:32:38.930Z,80.40
2023-02-26T21:35:06.920Z,80.20
2023-02-26T21:37:33.683Z,80.60
2023-02-26T21:40:00.218Z,80.90
2023-02-26T21:42:26.884Z,80.30
2023-02-26T21:44:53.441Z,80.40
2023-02-26T21:47:20.023Z,80.80
2023-02-26T21:49:46.582Z,80.90
2023-02-26T21:52:13.146Z,80.60
2023-02-26T21:54:39.963Z,80.20
2023-02-26T21:57:06.829Z,80.10
2023-02-26T21:59:33.938Z,79.90
2023-02-26T22:02:00.642Z,80.10
2023-02-26T22:04:27.528Z,80.10
2023-02-26T22:06:54.201Z,80.00
2023-02-26T22:09:21.155Z,79.90
2023-02-26T22:11:48.353Z,80.10
2023-02-26T22:14:16.634Z,79.70
2023-02-26T22:16:43.289Z,79.50
2023-02-26T22:19:09.863Z,79.60
2023-02-26T22:21:36.459Z,79.90
2023-02-26T22:24:03.649Z,80.00
2023-02-26T22:26:30.318Z,80.00
2023-02-26T22:28:59.135Z,79.80
2023-02-26T22:31:26.841Z,79.90
2023-02-26T22:33:53.676Z,80.30
2023-02-26T22:36:20.271Z,80.20
2023-02-26T22:38:46.786Z,80.00
2023-02-26T22:41:13.354Z,79.70
2023-02-26T22:43:41.250Z,79.80
2023-02-26T22:46:08.016Z,79.80
2023-02-26T22:48:34.602Z,79.60
2023-02-26T22:51:01.155Z,79.80
2023-02-26T22:53:27.683Z,79.10
2023-02-26T22:55:54.599Z,79.20
2023-02-26T22:58:21.327Z,79.20
2023-02-26T23:00:47.943Z,79.10
2023-02-26T23:03:15.202Z,78.80
2023-02-26T23:05:41.752Z,79.50
2023-02-26T23:08:08.436Z,79.40
2023-02-26T23:10:34.991Z,79.40
2023-02-26T23:13:02.915Z,79.10
2023-02-26T23:15:30.233Z,79.00
2023-02-26T23:17:56.884Z,79.10
2023-02-26T23:20:23.556Z,79.30
2023-02-26T23:22:50.160Z,79.60
2023-02-26T23:25:16.786Z,79.70
2023-02-26T23:27:43.486Z,79.50
2023-02-26T23:30:11.104Z,79.10
2023-02-26T23:32:37.756Z,79.30
2023-02-26T23:35:05.270Z,79.20
2023-02-26T23:37:32.162Z,79.20
2023-02-26T23:39:58.657Z,78.70
2023-02-26T23:42:25.431Z,78.40
2023-02-26T23:44:51.992Z,78.50
2023-02-26T23:47:18.602Z,78.80
2023-02-26T23:49:45.147Z,78.50
2023-02-26T23:52:11.674Z,78.40
2023-02-26T23:54:39.786Z,78.30
2023-02-26T23:57:06.787Z,78.70
2023-02-26T23:59:33.754Z,78.80
